Latest Weather Observations for Parkes Airport

IDN60801

Issued at 3:42 pm EST Thursday 26 May 2022 (issued every 10 minutes, with the page automatically refreshed every 10 minutes)

About weather observations | Map of weather stations | Latest weather observations for NSW | Other Formats
Station Details ID: 065068 Name: PARKES AIRPORT AWS Lat: -33.13 Lon: 148.24 Height: 323.3 m
Data from the previous 72 hours. | See also: Recent months at Parkes Airport
Date/Time
EST
Temp
°C
App
Temp
°C
Dew
Point
°C
Rel
Hum
%
Delta-T
°C
Wind Press
QNH
hPa
Press
MSL
hPa
Rain since
9am
mm
Dir  Spd
km/h
Gust
km/h
Spd
kts
Gust
kts
26/03:30pm 19.9 17.9 10.3 54 5.2 N 11 17 6 9 1018.0 1017.9 0.0
26/03:00pm 19.8 16.9 11.0 57 4.9 NNW 17 24 9 13 1017.9 1017.8 0.0
26/02:30pm 20.4 17.4 10.8 54 5.3 NNW 17 20 9 11 1018.0 1017.9 0.0
26/02:00pm 19.2 15.8 10.7 58 4.7 NNW 19 22 10 12 1018.2 1018.1 0.0
26/01:30pm 19.7 16.1 9.9 53 5.3 N 19 24 10 13 1018.3 1018.2 0.0
26/01:00pm 20.4 17.6 9.9 51 5.7 N 15 22 8 12 1018.4 1018.3 0.0
26/12:30pm 19.3 15.5 9.2 52 5.4 N 19 24 10 13 1018.7 1018.6 0.0
26/12:00pm 19.7 16.2 10.9 57 4.9 N 20 26 11 14 1019.2 1019.2 0.0
26/11:30am 18.9 16.1 11.2 61 4.3 NNE 17 24 9 13 1019.7 1019.7 0.0
26/11:00am 18.5 14.7 11.1 62 4.1 N 22 30 12 16 1020.0 1020.0 0.0
26/10:30am 16.8 13.6 11.3 70 3.0 NNE 19 22 10 12 1020.3 1020.3 0.0
26/10:00am 16.2 13.4 11.2 72 2.7 NNE 17 22 9 12 1020.4 1020.4 0.0
26/09:30am 15.7 13.6 11.1 74 2.5 NNE 13 20 7 11 1020.6 1020.5 0.0
26/09:00am 15.0 13.5 10.6 75 2.4 NE 9 13 5 7 1020.6 1020.5 0.0
26/08:30am 14.4 13.0 11.0 80 1.8 NNE 9 13 5 7 1020.4 1020.4 0.0
26/08:00am 14.0 14.3 11.0 82 1.6 CALM 0 0 0 0 1020.2 1020.2 0.0
26/07:30am 12.6 12.7 10.1 85 1.3 CALM 0 0 0 0 1019.9 1019.9 0.0
26/07:00am 12.4 12.3 9.4 82 1.5 CALM 0 0 0 0 1019.8 1019.8 0.0
26/06:30am 12.8 11.0 9.6 81 1.7 NE 9 11 5 6 1019.5 1019.5 0.0
26/06:00am 12.8 12.3 9.4 80 1.8 N 2 7 1 4 1019.2 1019.2 0.0
26/05:30am 12.9 11.7 9.4 79 1.8 E 6 7 3 4 1018.9 1018.9 0.0
26/05:00am 12.8 11.3 9.1 78 1.9 ESE 7 11 4 6 1018.7 1018.6 0.0
26/04:30am 12.8 10.9 9.1 78 1.9 E 9 11 5 6 1018.6 1018.5 0.0
26/04:00am 12.8 10.2 9.3 79 1.8 NE 13 15 7 8 1018.7 1018.6 0.0
26/03:30am 12.7 10.1 9.2 79 1.8 NE 13 15 7 8 1018.8 1018.8 0.0
26/03:00am 12.9 10.7 9.2 78 1.9 ENE 11 17 6 9 1018.8 1018.8 0.0
26/02:30am 13.3 11.1 9.5 78 2.0 NE 11 17 6 9 1019.1 1019.1 0.0
26/02:00am 12.8 10.1 10.3 85 1.3 NE 15 17 8 9 1019.0 1019.0 0.0
26/01:30am 12.6 10.0 10.7 88 1.0 ENE 15 19 8 10 1019.1 1019.1 0.0
26/01:00am 12.5 11.4 10.6 88 1.0 NNE 7 9 4 5 1019.5 1019.5 0.0
26/12:30am 12.5 10.2 10.6 88 1.0 NE 13 13 7 7 1019.6 1019.6 0.0
26/12:00am 12.7 10.4 10.6 87 1.1 ENE 13 17 7 9 1019.8 1019.8 0.0
 
Date/Time
EST
Temp
°C
App
Temp
°C
Dew
Point
°C
Rel
Hum
%
Delta-T
°C
Wind Press
QNH
hPa
Press
MSL
hPa
Rain since
9am
mm
Dir  Spd
km/h
Gust
km/h
Spd
kts
Gust
kts
25/11:30pm 12.2 10.0 10.8 91 0.7 E 13 15 7 8 1020.0 1020.0 0.0
25/11:00pm 12.0 9.8 10.7 92 0.7 E 13 15 7 8 1020.3 1020.3 0.0
25/10:30pm 12.0 10.2 10.7 92 0.7 ENE 11 13 6 7 1020.7 1020.6 0.0
25/10:00pm 12.0 10.2 10.7 92 0.7 ENE 11 13 6 7 1020.9 1020.8 0.0
25/09:30pm 12.0 10.5 10.7 92 0.7 NE 9 11 5 6 1021.0 1020.9 0.0
25/09:00pm 12.1 10.3 10.8 92 0.7 E 11 11 6 6 1021.2 1021.1 0.0
25/08:30pm 12.4 11.0 11.0 91 0.7 ENE 9 11 5 6 1021.3 1021.2 0.0
25/08:00pm 12.7 13.0 10.8 88 1.0 CALM 0 0 0 0 1021.3 1021.2 0.0
25/07:30pm 12.7 11.5 10.4 86 1.2 NE 7 9 4 5 1021.2 1021.1 0.0
25/07:00pm 13.4 13.6 10.4 82 1.6 CALM 0 0 0 0 1021.2 1021.1 0.0
25/06:30pm 13.3 13.4 10.3 82 1.6 CALM 0 0 0 0 1021.0 1020.9 0.0
25/06:00pm 13.6 13.6 9.8 78 2.0 CALM 0 6 0 3 1021.0 1020.9 0.0
25/05:30pm 14.5 12.9 10.3 76 2.2 N 9 9 5 5 1020.8 1020.7 0.0
25/05:00pm 14.9 13.7 10.3 74 2.4 NNE 7 7 4 4 1020.7 1020.6 0.0
25/04:30pm 15.9 14.9 10.4 70 3.0 N 6 7 3 4 1020.6 1020.5 0.0
25/04:00pm 16.5 14.9 10.1 66 3.4 NNW 9 13 5 7 1020.6 1020.5 0.0
25/03:30pm 16.9 14.5 10.1 64 3.6 NNW 13 15 7 8 1020.6 1020.5 0.0
25/03:00pm 17.1 14.3 10.0 63 3.8 NNW 15 17 8 9 1020.7 1020.6 0.0
25/02:30pm 17.1 14.7 10.0 63 3.8 N 13 15 7 8 1020.8 1020.7 0.0
25/02:00pm 17.4 14.2 10.1 62 3.9 N 17 20 9 11 1020.9 1020.8 0.0
25/01:30pm 18.1 15.2 9.7 58 4.5 NNW 15 19 8 10 1021.2 1021.1 0.0
25/01:00pm 18.5 16.0 9.8 57 4.7 N 13 20 7 11 1021.5 1021.5 0.0
25/12:30pm 19.2 17.1 9.9 55 5.0 N 11 15 6 8 1021.9 1021.9 0.0
25/12:00pm 17.4 14.5 9.8 61 4.1 NNE 15 22 8 12 1022.3 1022.3 0.0
25/11:30am 16.5 13.5 9.2 62 3.8 NNE 15 22 8 12 1022.8 1022.8 0.0
25/11:00am 16.3 12.9 9.3 63 3.7 NNE 17 24 9 13 1023.1 1023.1 0.0
25/10:30am 17.0 13.3 9.4 61 4.0 NNE 19 26 10 14 1023.2 1023.2 0.0
25/10:00am 16.7 13.0 9.4 62 3.8 NE 19 24 10 13 1023.5 1023.5 0.0
25/09:30am 15.3 12.2 9.0 66 3.3 NE 15 20 8 11 1023.9 1023.8 0.0
25/09:00am 14.4 13.0 9.4 72 2.6 ENE 7 11 4 6 1023.7 1023.7 0.0
25/08:30am 12.9 10.4 8.4 74 2.3 ENE 11 15 6 8 1023.6 1023.6 0.0
25/08:00am 11.3 7.9 7.8 79 1.7 ENE 15 20 8 11 1023.9 1023.8 0.0
25/07:30am 11.4 7.3 7.7 78 1.8 ENE 19 24 10 13 1023.4 1023.4 0.0
25/07:00am 10.3 6.4 7.0 80 1.6 ENE 17 22 9 12 1023.3 1023.3 0.0
25/06:30am 10.3 6.0 7.2 81 1.5 ENE 19 26 10 14 1023.1 1023.1 0.0
25/06:00am 9.0 6.1 6.6 85 1.1 ENE 11 13 6 7 1023.0 1023.0 0.0
25/05:30am 8.5 5.9 6.3 86 1.0 ENE 9 13 5 7 1022.9 1022.9 0.0
25/05:00am 8.9 6.9 7.0 88 0.9 ENE 7 9 4 5 1022.9 1022.9 0.0
25/04:30am 6.5 4.0 4.7 88 0.8 ENE 7 9 4 5 1023.1 1023.1 0.0
25/04:00am 8.2 5.7 6.5 89 0.8 ENE 9 11 5 6 1023.3 1023.3 0.0
25/03:30am 6.8 4.5 5.6 92 0.5 ENE 7 9 4 5 1023.3 1023.3 0.0
25/03:00am 6.5 5.0 5.0 90 0.7 ENE 2 7 1 4 1023.4 1023.4 0.0
25/02:30am 6.9 5.9 5.5 91 0.6 CALM 0 0 0 0 1023.6 1023.6 0.0
25/02:00am 7.0 6.0 5.6 91 0.6 CALM 0 0 0 0 1023.9 1023.8 0.0
25/01:30am 6.5 5.3 4.8 89 0.8 CALM 0 7 0 4 1024.0 1023.9 0.0
25/01:00am 7.7 6.5 6.3 91 0.6 E 2 7 1 4 1024.5 1024.5 0.0
25/12:30am 7.3 5.8 5.1 86 1.0 NE 2 6 1 3 1024.7 1024.7 0.0
25/12:00am 8.6 6.1 6.6 87 0.9 ENE 9 13 5 7 1024.8 1024.8 0.0
 
Date/Time
EST
Temp
°C
App
Temp
°C
Dew
Point
°C
Rel
Hum
%
Delta-T
°C
Wind Press
QNH
hPa
Press
MSL
hPa
Rain since
9am
mm
Dir  Spd
km/h
Gust
km/h
Spd
kts
Gust
kts
24/11:30pm 8.3 7.6 7.1 92 0.6 CALM 0 0 0 0 1025.1 1025.1 0.0
24/11:00pm 7.4 4.8 6.0 91 0.6 N 9 9 5 5 1025.5 1025.5 0.0
24/10:30pm 7.8 5.2 6.1 89 0.8 E 9 13 5 7 1025.5 1025.5 0.0
24/10:00pm 7.8 5.6 6.3 90 0.7 NE 7 9 4 5 1025.8 1025.8 0.0
24/09:30pm 8.2 6.0 6.2 87 0.9 NE 7 9 4 5 1026.0 1026.0 0.0
24/09:00pm 9.2 6.8 7.0 86 1.0 NE 9 11 5 6 1025.7 1025.7 0.0
24/08:30pm 10.1 7.1 7.5 84 1.3 E 13 17 7 9 1025.5 1025.5 0.0
24/08:00pm 9.1 5.8 6.4 83 1.3 E 13 13 7 7 1025.2 1025.2 0.0
24/07:30pm 9.9 7.2 7.2 83 1.3 E 11 13 6 7 1025.1 1025.1 0.0
24/07:00pm 10.9 7.7 7.0 77 1.9 E 13 13 7 7 1024.9 1024.9 0.0
24/06:30pm 11.6 8.5 7.3 75 2.1 E 13 17 7 9 1024.7 1024.7 0.0
24/06:00pm 11.7 8.5 7.0 73 2.3 E 13 15 7 8 1024.4 1024.4 0.0
24/05:30pm 13.5 10.5 7.5 67 3.0 E 13 15 7 8 1024.0 1023.9 0.0
24/05:00pm 15.9 12.6 7.9 59 4.1 ENE 15 19 8 10 1023.7 1023.7 0.0
24/04:30pm 17.3 14.3 7.6 53 5.0 ENE 13 20 7 11 1023.4 1023.4 0.0
24/04:00pm 17.1 13.8 8.0 55 4.7 NE 15 20 8 11 1023.4 1023.4 0.0
24/03:30pm 19.0 15.3 7.8 48 5.8 ENE 17 24 9 13 1023.2 1023.2 0.0
24/03:00pm 19.6 16.1 8.9 50 5.7 E 17 24 9 13 1023.2 1023.2 0.0
24/02:30pm 19.3 15.0 7.7 47 6.0 E 20 30 11 16 1023.4 1023.4 0.0
24/02:00pm 19.4 15.3 8.7 50 5.6 NE 20 24 11 13 1023.7 1023.7 0.0
24/01:30pm 18.7 15.6 8.7 52 5.3 E 15 20 8 11 1024.3 1024.3 0.0
24/01:00pm 19.2 16.7 8.2 49 5.7 ENE 11 17 6 9 1024.7 1024.7 0.0
24/12:30pm 17.5 14.2 8.1 54 4.9 E 15 20 8 11 1025.3 1025.3 0.0
24/12:00pm 18.7 15.2 8.7 52 5.3 E 17 24 9 13 1025.6 1025.6 0.0
24/11:30am 18.3 15.1 8.6 53 5.1 E 15 22 8 12 1026.2 1026.2 0.0
24/11:00am 17.8 15.0 8.4 54 4.9 E 13 20 7 11 1026.8 1026.9 0.0
24/10:30am 17.5 14.4 8.9 57 4.5 ENE 15 20 8 11 1027.2 1027.2 0.0
24/10:00am 16.8 12.8 8.2 57 4.4 ENE 19 24 10 13 1027.3 1027.3 0.0
24/09:30am 15.8 11.6 8.3 61 3.9 ENE 20 26 11 14 1027.4 1027.4 0.0
24/09:00am 14.9 11.6 8.2 64 3.4 ENE 15 22 8 12 1027.4 1027.4 0.0
24/08:30am 13.7 11.2 8.1 69 2.8 ENE 11 17 6 9 1027.5 1027.5 0.0
24/08:00am 12.2 10.2 8.7 79 1.8 E 9 15 5 8 1027.3 1027.3 0.0
24/07:30am 9.5 7.6 7.6 88 0.9 NE 7 11 4 6 1027.2 1027.2 0.0
24/07:00am 6.7 4.4 4.9 88 0.8 NNE 6 9 3 5 1026.7 1026.8 0.0
24/06:30am 7.2 5.0 5.3 88 0.9 NE 6 9 3 5 1026.3 1026.3 0.0
24/06:00am 8.3 5.7 7.7 96 0.3 E 11 19 6 10 1026.0 1026.0 0.0
24/05:30am 5.9 3.4 4.9 93 0.4 NE 7 11 4 6 1025.7 1025.7 0.0
24/05:00am 5.8 3.5 4.8 93 0.4 NNE 6 9 3 5 1025.7 1025.7 0.0
24/04:30am 6.5 4.7 5.5 93 0.5 NNW 4 7 2 4 1025.8 1025.8 0.0
24/04:00am 6.9 4.7 5.4 90 0.7 ESE 6 11 3 6 1025.8 1025.8 0.0
24/03:30am 6.9 4.0 4.7 86 1.0 ESE 9 11 5 6 1025.9 1025.9 0.0
24/03:00am 8.7 6.5 6.3 85 1.1 ESE 7 9 4 5 1026.1 1026.1 0.0
24/02:30am 7.8 6.3 5.1 83 1.2 ESE 2 9 1 5 1026.4 1026.4 0.0
24/02:00am 9.1 8.1 5.7 79 1.6 CALM 0 0 0 0 1026.5 1026.5 0.0
24/01:30am 10.2 6.9 6.4 77 1.8 ENE 13 13 7 7 1026.7 1026.8 0.0
24/01:00am 9.8 6.6 6.9 82 1.4 E 13 19 7 10 1026.9 1027.0 0.0
24/12:30am 8.4 6.3 5.9 84 1.2 WSW 6 9 3 5 1027.1 1027.1 0.0
24/12:00am 10.8 7.9 6.4 74 2.1 ENE 11 15 6 8 1027.1 1027.1 0.0
 
Date/Time
EST
Temp
°C
App
Temp
°C
Dew
Point
°C
Rel
Hum
%
Delta-T
°C
Wind Press
QNH
hPa
Press
MSL
hPa
Rain since
9am
mm
Dir  Spd
km/h
Gust
km/h
Spd
kts
Gust
kts
23/11:30pm 11.1 7.1 6.8 75 2.1 ENE 17 20 9 11 1026.9 1027.0 0.0
23/11:00pm 11.7 7.6 8.0 78 1.8 ENE 19 24 10 13 1026.9 1027.0 0.0
23/10:30pm 7.8 5.6 6.3 90 0.7 NNE 7 11 4 6 1026.9 1027.0 0.0
23/10:00pm 8.3 5.7 6.1 86 1.0 ENE 9 11 5 6 1026.9 1027.0 0.0
23/09:30pm 10.0 7.3 7.3 83 1.3 NE 11 13 6 7 1027.1 1027.1 0.0
23/09:00pm 8.8 6.3 6.6 86 1.0 NE 9 13 5 7 1027.1 1027.1 0.0
23/08:30pm 8.5 6.4 6.5 87 0.9 NNE 7 9 4 5 1026.8 1026.9 0.0
23/08:00pm 10.0 8.2 7.8 86 1.1 NNE 7 11 4 6 1026.7 1026.8 0.0
23/07:30pm 9.7 6.9 7.0 83 1.3 E 11 13 6 7 1026.6 1026.6 0.0
23/07:00pm 10.2 7.3 6.7 79 1.7 E 11 13 6 7 1026.1 1026.1 0.0
23/06:30pm 10.6 7.4 6.9 78 1.8 ESE 13 15 7 8 1025.9 1025.9 0.0
23/06:00pm 10.9 8.0 6.6 75 2.1 ESE 11 13 6 7 1025.7 1025.7 0.0
23/05:30pm 12.8 10.6 7.7 71 2.5 ESE 9 11 5 6 1025.5 1025.5 0.0
23/05:00pm 14.1 11.9 7.9 66 3.1 ESE 9 11 5 6 1025.3 1025.3 0.0
23/04:30pm 15.8 13.2 7.8 59 4.1 ESE 11 15 6 8 1025.3 1025.3 0.0
23/04:00pm 17.6 13.2 7.6 52 5.1 E 20 26 11 14 1025.0 1025.0 0.0

Other formats

Comma delimited format used in spreadsheet applications
http://www.bom.gov.au/fwo/IDN60801/IDN60801.95717.axf

JavaScript Object Notation format (JSON) in row-major order
http://www.bom.gov.au/fwo/IDN60801/IDN60801.95717.json

Data quality

Most of these data are generated automatically and are frequently updated. Quality checks on data are not normally performed. It is possible for incorrect values to appear. Refer to information at About Latest Weather Observations and please check the disclaimer before using these data.